page 5067 of 1009803 registered users

eBook PostsUsers

  1. 0april0test registered @ 2012-12-23 15:05:40, last login @ 2012-12-23 15:05:40
  2. 0violetbreak78 registered @ 2012-12-23 15:08:04, last login @ 2012-12-23 15:50:15
  3. 0vest4color registered @ 2012-12-23 15:08:52, last login @ 2012-12-23 15:08:52
  4. 0cream5print registered @ 2012-12-23 15:09:00, last login @ 2012-12-23 15:09:00
  5. 0rice2wheel registered @ 2012-12-23 15:09:40, last login @ 2012-12-23 15:09:40
  6. 0growthkey8 registered @ 2012-12-23 15:11:47, last login @ 2012-12-23 15:11:47
  7. 0duck37error registered @ 2012-12-23 15:12:58, last login @ 2012-12-23 15:12:58
  8. 0bitejeans8 registered @ 2012-12-23 15:15:15, last login @ 2012-12-23 15:15:15
  9. 0dream36legal registered @ 2012-12-23 15:16:01, last login @ 2012-12-23 15:16:01
  10. 0pyjamaappeal3 registered @ 2012-12-23 15:17:41, last login @ 2012-12-23 15:17:41
  11. 0trail07shoe registered @ 2012-12-23 15:17:57, last login @ 2012-12-23 15:17:57
  12. 0cable3credit registered @ 2012-12-23 15:19:18, last login @ 2012-12-23 15:19:18
  13. 0spark5house registered @ 2012-12-23 15:19:39, last login @ 2012-12-23 15:19:39
  14. 0ipgrunt registered @ 2012-12-23 15:21:23, last login @ 2012-12-23 15:21:23
  15. 0trainsyrup9 registered @ 2012-12-23 15:22:33, last login @ 2012-12-23 15:22:33
  16. 0hardyhellen43 registered @ 2012-12-23 15:22:52, last login @ 2012-12-23 15:37:55
  17. 0karatewood28 registered @ 2012-12-23 15:24:32, last login @ 2012-12-23 15:24:32
  18. 0whorl29doctor registered @ 2012-12-23 15:25:51, last login @ 2012-12-23 15:25:51
  19. 0kettlemitten47 registered @ 2012-12-23 15:26:48, last login @ 2012-12-23 15:26:48
  20. 0parcel78maria registered @ 2012-12-23 15:30:20, last login @ 2012-12-23 15:30:20
  21. 0sensechain5 registered @ 2012-12-23 15:30:55, last login @ 2012-12-23 15:30:55
  22. 0paradeclef92 registered @ 2012-12-23 15:31:17, last login @ 2012-12-23 15:31:17
  23. 0weederbar97 registered @ 2012-12-23 15:33:47, last login @ 2012-12-23 15:33:47
  24. 0skycloud123 registered @ 2012-12-23 15:36:00, last login @ 2012-12-23 15:36:58
  25. 0temper7ankle registered @ 2012-12-23 15:36:16, last login @ 2012-12-23 15:36:16
  26. 0frenchlead1 registered @ 2012-12-23 15:39:55, last login @ 2012-12-23 15:39:55
  27. 0yoke92asia registered @ 2012-12-23 15:42:52, last login @ 2012-12-23 15:42:52
  28. 0rat71shears registered @ 2012-12-23 15:43:01, last login @ 2012-12-23 15:43:01
  29. 0chain7body registered @ 2012-12-23 15:45:16, last login @ 2012-12-23 15:45:16
  30. 0lumberphone9 registered @ 2012-12-23 15:45:45, last login @ 2012-12-23 15:45:45
  31. 0donaldlawyer6 registered @ 2012-12-23 15:45:59, last login @ 2012-12-23 15:45:59
  32. 0dextercoy23 registered @ 2012-12-23 15:47:00, last login @ 2012-12-23 15:47:00
  33. 0gamewar01 registered @ 2012-12-23 15:47:00, last login @ 2012-12-23 15:47:00
  34. 0burmabobcat2 registered @ 2012-12-23 15:50:21, last login @ 2012-12-23 15:50:21
  35. 0DanielHStephenso registered @ 2012-12-23 15:51:10, last login @ 2012-12-23 15:51:10
  36. 0testsphynx6 registered @ 2012-12-23 15:51:15, last login @ 2012-12-23 15:51:15
  37. 0vesselthrone6 registered @ 2012-12-23 15:51:20, last login @ 2012-12-23 15:51:20
  38. 0thronefrown2 registered @ 2012-12-23 15:51:50, last login @ 2012-12-23 15:51:50
  39. 0timer49soil registered @ 2012-12-23 15:52:17, last login @ 2012-12-23 15:52:17
  40. 0tubclick4 registered @ 2012-12-23 15:52:19, last login @ 2012-12-23 15:52:19
  41. 0pocket9libra registered @ 2012-12-23 15:55:30, last login @ 2012-12-23 15:55:30
  42. 0pilotlute16 registered @ 2012-12-23 15:58:56, last login @ 2012-12-23 15:58:56
  43. 0blouse5waste registered @ 2012-12-23 15:59:28, last login @ 2012-12-23 15:59:28
  44. 0jet1cough registered @ 2012-12-23 16:00:20, last login @ 2012-12-23 16:00:20
  45. 0targetsail38 registered @ 2012-12-23 16:01:45, last login @ 2012-12-23 16:01:45
  46. 0sneezemark2 registered @ 2012-12-23 16:02:05, last login @ 2012-12-23 16:02:05
  47. 0africa4meat registered @ 2012-12-23 16:05:44, last login @ 2012-12-23 16:05:44
  48. 0brand5frown registered @ 2012-12-23 16:08:29, last login @ 2012-12-23 16:08:29
  49. 0parkjacket0 registered @ 2012-12-23 16:09:47, last login @ 2012-12-23 16:09:47
  50. 0double24cap registered @ 2012-12-23 16:11:47, last login @ 2012-12-23 16:11:47
  51. 0routebottom1 registered @ 2012-12-23 16:12:00, last login @ 2012-12-23 16:12:00
  52. 0nailjoseph0 registered @ 2012-12-23 16:12:27, last login @ 2012-12-23 16:20:03
  53. 0rhythm8aries registered @ 2012-12-23 16:13:58, last login @ 2012-12-23 16:13:58
  54. 0peanutwind51 registered @ 2012-12-23 16:14:04, last login @ 2012-12-23 16:14:04
  55. 0pothope47 registered @ 2012-12-23 16:16:49, last login @ 2012-12-23 16:16:49
  56. 0seat19area registered @ 2012-12-23 16:16:57, last login @ 2012-12-23 16:16:57
  57. 0birchocean8 registered @ 2012-12-23 16:17:00, last login @ 2012-12-23 16:17:00
  58. 0pastryarch45 registered @ 2012-12-23 16:17:28, last login @ 2012-12-23 16:17:28
  59. 0singer51ruth registered @ 2012-12-23 16:19:05, last login @ 2012-12-23 16:19:05
  60. 0littermotion13 registered @ 2012-12-23 16:23:39, last login @ 2012-12-23 16:23:39
  61. 0bagel3suede registered @ 2012-12-23 16:25:03, last login @ 2012-12-23 16:25:03
  62. 0comma19burn registered @ 2012-12-23 16:26:49, last login @ 2012-12-23 16:26:49
  63. 0holisuresh registered @ 2012-12-23 16:27:02, last login @ 2012-12-23 16:27:02
  64. 0napkinbangle0 registered @ 2012-12-23 16:27:47, last login @ 2012-12-23 16:27:47
  65. 0stickmanx5 registered @ 2012-12-23 16:28:30, last login @ 2012-12-23 16:28:30
  66. 0option8delete registered @ 2012-12-23 16:28:48, last login @ 2012-12-23 16:28:48
  67. 0foamtheory35 registered @ 2012-12-23 16:29:28, last login @ 2012-12-23 16:29:28
  68. 0kittencamel72 registered @ 2012-12-23 16:30:33, last login @ 2012-12-23 16:30:33
  69. 0jthacker48 registered @ 2012-12-23 16:31:58, last login @ 2012-12-23 16:31:58
  70. 0squash87road registered @ 2012-12-23 16:34:57, last login @ 2012-12-23 16:34:57
  71. 0appealdebt41 registered @ 2012-12-23 16:36:01, last login @ 2012-12-23 16:36:01
  72. 0hook5roof registered @ 2012-12-23 16:36:09, last login @ 2012-12-23 16:36:09
  73. 0spychain56 registered @ 2012-12-23 16:36:12, last login @ 2012-12-23 16:36:12
  74. 0crackpart1 registered @ 2012-12-23 16:37:45, last login @ 2012-12-23 16:37:45
  75. 0orchiddonkey1 registered @ 2012-12-23 16:39:25, last login @ 2012-12-23 16:39:25
  76. 0violetbelt49 registered @ 2012-12-23 16:39:32, last login @ 2012-12-23 16:39:32
  77. 0lizardseeder32 registered @ 2012-12-23 16:41:42, last login @ 2012-12-23 16:41:42
  78. 0creditstock04 registered @ 2012-12-23 16:42:22, last login @ 2012-12-23 16:59:42
  79. 0island4colony registered @ 2012-12-23 16:48:02, last login @ 2012-12-23 16:48:02
  80. 0tailidea7 registered @ 2012-12-23 16:49:12, last login @ 2012-12-23 16:49:12
  81. 0loafaugust1 registered @ 2012-12-23 16:49:45, last login @ 2012-12-23 16:49:45
  82. 0pull8brick registered @ 2012-12-23 16:50:10, last login @ 2012-12-23 16:50:10
  83. 0dewblade6 registered @ 2012-12-23 16:53:50, last login @ 2012-12-23 16:53:50
  84. 0housetrain5 registered @ 2012-12-23 16:54:04, last login @ 2012-12-23 16:54:04
  85. 0bronzelily72 registered @ 2012-12-23 16:56:23, last login @ 2012-12-23 16:56:23
  86. 0orange5tent registered @ 2012-12-23 16:56:34, last login @ 2012-12-23 16:56:34
  87. 0peacechalk97 registered @ 2012-12-23 16:59:20, last login @ 2012-12-23 16:59:20
  88. 0pike39monday registered @ 2012-12-23 16:59:25, last login @ 2012-12-23 16:59:25
  89. 0workprofit62 registered @ 2012-12-23 16:59:35, last login @ 2012-12-23 16:59:35
  90. 0dog6act registered @ 2012-12-23 16:59:46, last login @ 2012-12-23 16:59:46
  91. 0flood3beggar registered @ 2012-12-23 16:59:52, last login @ 2012-12-23 16:59:52
  92. 0spongemind1 registered @ 2012-12-23 17:00:27, last login @ 2012-12-23 17:00:27
  93. 0coachroot8 registered @ 2012-12-23 17:00:32, last login @ 2012-12-23 17:00:32
  94. 0golf1peony registered @ 2012-12-23 17:04:39, last login @ 2012-12-23 17:48:40
  95. 0vein46edger registered @ 2012-12-23 17:05:40, last login @ 2012-12-23 17:05:40
  96. 0rugbytyvek11 registered @ 2012-12-23 17:06:18, last login @ 2012-12-23 17:26:47
  97. 0sensecrown4 registered @ 2012-12-23 17:07:05, last login @ 2012-12-23 17:07:05
  98. 0event4record registered @ 2012-12-23 17:08:24, last login @ 2012-12-23 17:08:24
  99. 0rise3blow registered @ 2012-12-23 17:14:14, last login @ 2012-12-23 17:14:14
  100. 0spikequit36 registered @ 2012-12-23 17:14:40, last login @ 2012-12-23 17:14:40
  101. 0eggnogdrake3 registered @ 2012-12-23 17:15:31, last login @ 2012-12-23 17:15:31

More...

[5077] [5076] [5075] [5074] [5073] [5072] [5071] [5070] [5069] [5068] [5067] [5066] [5065] [5064] [5063] [5062] [5061] [5060] [5059] [5058] ...[1]
Back to Top